sensor_id;sensor_type;location;lat;lon;timestamp;pressure;altitude;pressure_sealevel;temperature;humidity
55757;BME280;41676;44.610;44.078;2023-05-21T00:01:56;100047.22;;;16.89;60.52
55757;BME280;41676;44.610;44.078;2023-05-21T00:06:59;100051.00;;;16.81;60.36
55757;BME280;41676;44.610;44.078;2023-05-21T00:12:01;99988.72;;;16.34;61.21
55757;BME280;41676;44.610;44.078;2023-05-21T00:17:01;100060.31;;;16.72;61.47
55757;BME280;41676;44.610;44.078;2023-05-21T00:22:02;100053.56;;;16.56;61.94
55757;BME280;41676;44.610;44.078;2023-05-21T00:27:04;100051.97;;;16.49;62.16
55757;BME280;41676;44.610;44.078;2023-05-21T00:32:05;99875.56;;;15.36;62.09
55757;BME280;41676;44.610;44.078;2023-05-21T00:37:06;100038.25;;;16.25;62.91
55757;BME280;41676;44.610;44.078;2023-05-21T00:42:09;100083.72;;;16.45;62.91
55757;BME280;41676;44.610;44.078;2023-05-21T00:47:11;100048.78;;;16.20;64.10
55757;BME280;41676;44.610;44.078;2023-05-21T00:52:13;100067.31;;;16.28;64.67
55757;BME280;41676;44.610;44.078;2023-05-21T00:57:21;99990.56;;;15.82;65.68
55757;BME280;41676;44.610;44.078;2023-05-21T01:02:22;100049.16;;;16.24;65.69
55757;BME280;41676;44.610;44.078;2023-05-21T01:07:23;100006.81;;;15.94;66.17
55757;BME280;41676;44.610;44.078;2023-05-21T01:12:24;100032.53;;;16.08;66.30
55757;BME280;41676;44.610;44.078;2023-05-21T01:17:26;99942.03;;;15.59;66.76
55757;BME280;41676;44.610;44.078;2023-05-21T01:22:30;100006.97;;;16.06;66.98
55757;BME280;41676;44.610;44.078;2023-05-21T01:27:31;99995.88;;;16.02;66.09
55757;BME280;41676;44.610;44.078;2023-05-21T01:43:09;99983.78;;;15.73;66.70
55757;BME280;41676;44.610;44.078;2023-05-21T01:48:11;100047.13;;;16.19;67.85
55757;BME280;41676;44.610;44.078;2023-05-21T01:53:14;100027.00;;;15.96;69.14
55757;BME280;41676;44.610;44.078;2023-05-21T01:58:15;99973.53;;;15.57;70.02
55757;BME280;41676;44.610;44.078;2023-05-21T02:03:17;100036.28;;;15.94;70.94
55757;BME280;41676;44.610;44.078;2023-05-21T02:08:19;100018.78;;;15.85;70.89
55757;BME280;41676;44.610;44.078;2023-05-21T02:13:19;100024.97;;;15.85;71.24
55757;BME280;41676;44.610;44.078;2023-05-21T02:18:21;100039.38;;;15.97;71.73
55757;BME280;41676;44.610;44.078;2023-05-21T02:23:22;100050.88;;;16.05;72.28
55757;BME280;41676;44.610;44.078;2023-05-21T02:28:23;100063.63;;;16.09;72.58
55757;BME280;41676;44.610;44.078;2023-05-21T02:33:24;99951.94;;;15.45;72.56
55757;BME280;41676;44.610;44.078;2023-05-21T02:38:25;99990.16;;;15.79;73.17
55757;BME280;41676;44.610;44.078;2023-05-21T02:43:26;100059.09;;;16.16;73.89
55757;BME280;41676;44.610;44.078;2023-05-21T02:48:27;100054.53;;;16.24;74.20
55757;BME280;41676;44.610;44.078;2023-05-21T02:53:27;100072.44;;;16.30;74.99
55757;BME280;41676;44.610;44.078;2023-05-21T02:58:28;100066.25;;;16.29;75.87
55757;BME280;41676;44.610;44.078;2023-05-21T03:03:29;100058.59;;;16.33;76.22
55757;BME280;41676;44.610;44.078;2023-05-21T03:08:31;100058.59;;;16.33;77.45
55757;BME280;41676;44.610;44.078;2023-05-21T03:13:32;100061.88;;;16.41;77.42
55757;BME280;41676;44.610;44.078;2023-05-21T03:18:33;100070.47;;;16.57;78.01
55757;BME280;41676;44.610;44.078;2023-05-21T03:23:33;99991.06;;;16.17;78.55
55757;BME280;41676;44.610;44.078;2023-05-21T03:28:34;100050.25;;;16.61;78.84
55757;BME280;41676;44.610;44.078;2023-05-21T03:33:35;100018.88;;;16.61;79.07
55757;BME280;41676;44.610;44.078;2023-05-21T03:38:36;100055.06;;;16.91;78.55
55757;BME280;41676;44.610;44.078;2023-05-21T03:43:36;100065.69;;;17.04;78.28
55757;BME280;41676;44.610;44.078;2023-05-21T03:48:37;100068.50;;;17.16;78.15
55757;BME280;41676;44.610;44.078;2023-05-21T03:53:38;100070.31;;;17.22;78.19
55757;BME280;41676;44.610;44.078;2023-05-21T03:58:39;100079.72;;;17.31;78.07
55757;BME280;41676;44.610;44.078;2023-05-21T04:03:40;100071.63;;;17.38;78.25
55757;BME280;41676;44.610;44.078;2023-05-21T04:08:40;99984.31;;;16.85;78.82
55757;BME280;41676;44.610;44.078;2023-05-21T04:13:42;100060.88;;;17.38;78.91
55757;BME280;41676;44.610;44.078;2023-05-21T04:18:42;99986.00;;;17.04;79.03
55757;BME280;41676;44.610;44.078;2023-05-21T04:23:43;100058.47;;;17.54;79.19
55757;BME280;41676;44.610;44.078;2023-05-21T04:28:44;100050.66;;;17.53;78.62
55757;BME280;41676;44.610;44.078;2023-05-21T04:33:45;100006.44;;;17.30;78.18
55757;BME280;41676;44.610;44.078;2023-05-21T04:38:45;100062.41;;;17.77;77.94
55757;BME280;41676;44.610;44.078;2023-05-21T04:43:48;100056.91;;;17.90;77.59
55757;BME280;41676;44.610;44.078;2023-05-21T04:48:49;100052.81;;;18.06;76.69
55757;BME280;41676;44.610;44.078;2023-05-21T04:53:51;100053.69;;;18.18;76.10
55757;BME280;41676;44.610;44.078;2023-05-21T04:58:53;100052.66;;;18.19;75.68
55757;BME280;41676;44.610;44.078;2023-05-21T05:03:54;100056.16;;;18.38;74.68
55757;BME280;41676;44.610;44.078;2023-05-21T05:08:56;100060.22;;;18.59;73.25
55757;BME280;41676;44.610;44.078;2023-05-21T05:13:56;100042.19;;;18.78;71.90
55757;BME280;41676;44.610;44.078;2023-05-21T05:18:57;100051.41;;;19.12;70.03
55757;BME280;41676;44.610;44.078;2023-05-21T05:23:58;99959.91;;;18.70;69.41
55757;BME280;41676;44.610;44.078;2023-05-21T05:28:59;100038.91;;;19.18;68.77
55757;BME280;41676;44.610;44.078;2023-05-21T05:33:59;100036.88;;;19.13;68.19
55757;BME280;41676;44.610;44.078;2023-05-21T05:39:00;100000.69;;;18.98;68.14
55757;BME280;41676;44.610;44.078;2023-05-21T05:44:01;100065.16;;;19.46;67.69
55757;BME280;41676;44.610;44.078;2023-05-21T05:49:02;100061.28;;;19.42;67.69
55757;BME280;41676;44.610;44.078;2023-05-21T05:54:03;100016.28;;;19.07;67.45
55757;BME280;41676;44.610;44.078;2023-05-21T05:59:03;100055.25;;;19.05;67.45
55757;BME280;41676;44.610;44.078;2023-05-21T06:04:04;100058.19;;;19.03;67.69
55757;BME280;41676;44.610;44.078;2023-05-21T06:09:05;100053.38;;;19.05;67.34
55757;BME280;41676;44.610;44.078;2023-05-21T06:14:06;100020.09;;;18.76;66.91
55757;BME280;41676;44.610;44.078;2023-05-21T06:19:07;100064.75;;;19.07;66.76
55757;BME280;41676;44.610;44.078;2023-05-21T06:24:08;100069.41;;;19.00;67.07
55757;BME280;41676;44.610;44.078;2023-05-21T06:29:08;100065.06;;;18.99;67.05
55757;BME280;41676;44.610;44.078;2023-05-21T06:34:11;100066.13;;;18.98;66.77
55757;BME280;41676;44.610;44.078;2023-05-21T06:39:11;100059.31;;;18.96;66.88
55757;BME280;41676;44.610;44.078;2023-05-21T06:44:14;100055.34;;;18.98;66.58
55757;BME280;41676;44.610;44.078;2023-05-21T06:49:15;100048.09;;;18.99;66.58
55757;BME280;41676;44.610;44.078;2023-05-21T06:54:16;100004.16;;;18.75;66.18
55757;BME280;41676;44.610;44.078;2023-05-21T06:59:17;100041.69;;;19.11;66.26
55757;BME280;41676;44.610;44.078;2023-05-21T07:04:17;99987.13;;;19.04;65.91
55757;BME280;41676;44.610;44.078;2023-05-21T07:09:18;100032.94;;;19.39;65.19
55757;BME280;41676;44.610;44.078;2023-05-21T07:14:19;100020.88;;;19.42;65.00
55757;BME280;41676;44.610;44.078;2023-05-21T07:19:20;100029.91;;;19.59;64.31
55757;BME280;41676;44.610;44.078;2023-05-21T07:24:21;99927.09;;;19.15;64.38
55757;BME280;41676;44.610;44.078;2023-05-21T07:29:22;99955.19;;;19.43;63.04
55757;BME280;41676;44.610;44.078;2023-05-21T07:34:23;100012.56;;;19.79;61.82
55757;BME280;41676;44.610;44.078;2023-05-21T07:39:23;100006.72;;;19.82;61.47
55757;BME280;41676;44.610;44.078;2023-05-21T07:44:24;100001.19;;;19.89;59.42
55757;BME280;41676;44.610;44.078;2023-05-21T07:49:25;99994.59;;;20.08;59.01
55757;BME280;41676;44.610;44.078;2023-05-21T07:54:26;99983.56;;;20.38;58.83
55757;BME280;41676;44.610;44.078;2023-05-21T07:59:27;99994.47;;;20.72;56.75
55757;BME280;41676;44.610;44.078;2023-05-21T08:04:28;99973.28;;;20.81;54.75
55757;BME280;41676;44.610;44.078;2023-05-21T08:09:29;99977.03;;;20.96;54.42
55757;BME280;41676;44.610;44.078;2023-05-21T08:14:31;99965.59;;;21.06;53.26
55757;BME280;41676;44.610;44.078;2023-05-21T08:19:32;99929.50;;;20.95;52.59
55757;BME280;41676;44.610;44.078;2023-05-21T08:24:33;99980.19;;;21.39;52.60
55757;BME280;41676;44.610;44.078;2023-05-21T08:29:34;99984.63;;;21.67;52.53
55757;BME280;41676;44.610;44.078;2023-05-21T08:34:35;99908.75;;;21.35;52.36
55757;BME280;41676;44.610;44.078;2023-05-21T08:39:36;99967.38;;;21.95;52.12
55757;BME280;41676;44.610;44.078;2023-05-21T08:44:38;99967.66;;;21.94;51.99
55757;BME280;41676;44.610;44.078;2023-05-21T08:49:43;99954.81;;;22.06;52.23
55757;BME280;41676;44.610;44.078;2023-05-21T08:54:45;99957.56;;;22.11;52.14
55757;BME280;41676;44.610;44.078;2023-05-21T08:59:46;99945.78;;;22.17;51.26
55757;BME280;41676;44.610;44.078;2023-05-21T09:04:47;99900.44;;;22.07;50.88
55757;BME280;41676;44.610;44.078;2023-05-21T09:10:11;99936.88;;;22.49;48.35
55757;BME280;41676;44.610;44.078;2023-05-21T09:15:12;99944.88;;;22.66;48.71
55757;BME280;41676;44.610;44.078;2023-05-21T09:20:13;99934.44;;;22.47;49.29
55757;BME280;41676;44.610;44.078;2023-05-21T09:25:19;99891.25;;;22.30;48.43
55757;BME280;41676;44.610;44.078;2023-05-21T09:30:20;99925.41;;;22.69;49.44
55757;BME280;41676;44.610;44.078;2023-05-21T09:35:21;99902.25;;;22.83;49.65
55757;BME280;41676;44.610;44.078;2023-05-21T09:40:22;99924.13;;;22.76;49.51
55757;BME280;41676;44.610;44.078;2023-05-21T09:45:24;99869.31;;;22.64;49.33
55757;BME280;41676;44.610;44.078;2023-05-21T09:50:26;99821.69;;;22.31;48.77
55757;BME280;41676;44.610;44.078;2023-05-21T09:55:27;99926.41;;;22.90;49.48
55757;BME280;41676;44.610;44.078;2023-05-21T10:00:28;99916.09;;;22.87;49.73
55757;BME280;41676;44.610;44.078;2023-05-21T10:05:29;99931.13;;;23.05;49.46
55757;BME280;41676;44.610;44.078;2023-05-21T10:10:31;99926.25;;;23.01;49.83
55757;BME280;41676;44.610;44.078;2023-05-21T10:15:36;99923.25;;;23.03;48.56
55757;BME280;41676;44.610;44.078;2023-05-21T10:20:38;99892.94;;;23.06;48.22
55757;BME280;41676;44.610;44.078;2023-05-21T10:25:40;99881.69;;;23.24;46.99
55757;BME280;41676;44.610;44.078;2023-05-21T10:30:42;99900.25;;;23.53;45.70
55757;BME280;41676;44.610;44.078;2023-05-21T10:35:45;99919.50;;;23.57;43.78
55757;BME280;41676;44.610;44.078;2023-05-21T10:40:48;99917.56;;;23.47;44.28
55757;BME280;41676;44.610;44.078;2023-05-21T10:51:24;99840.25;;;22.87;43.38
55757;BME280;41676;44.610;44.078;2023-05-21T10:56:45;99909.31;;;23.21;43.93
55757;BME280;41676;44.610;44.078;2023-05-21T11:01:49;99937.75;;;23.19;44.25
55757;BME280;41676;44.610;44.078;2023-05-21T11:06:55;99909.13;;;22.96;43.16
55757;BME280;41676;44.610;44.078;2023-05-21T11:11:58;99862.22;;;22.53;42.70
55757;BME280;41676;44.610;44.078;2023-05-21T11:17:01;99916.13;;;22.92;42.44
55757;BME280;41676;44.610;44.078;2023-05-21T11:22:26;99917.06;;;23.08;42.45
55757;BME280;41676;44.610;44.078;2023-05-21T11:27:39;99913.56;;;23.12;42.66
55757;BME280;41676;44.610;44.078;2023-05-21T11:38:08;99899.41;;;23.47;42.88
55757;BME280;41676;44.610;44.078;2023-05-21T11:43:08;99822.06;;;23.30;42.43
55757;BME280;41676;44.610;44.078;2023-05-21T11:48:12;99877.09;;;23.98;41.80
55757;BME280;41676;44.610;44.078;2023-05-21T11:53:13;99802.97;;;23.67;41.13
55757;BME280;41676;44.610;44.078;2023-05-21T11:58:14;99865.19;;;24.25;40.71
55757;BME280;41676;44.610;44.078;2023-05-21T12:03:20;99880.44;;;24.62;39.63
55757;BME280;41676;44.610;44.078;2023-05-21T12:08:25;99869.59;;;24.67;40.38
55757;BME280;41676;44.610;44.078;2023-05-21T12:13:27;99857.13;;;24.50;40.98
55757;BME280;41676;44.610;44.078;2023-05-21T12:18:28;99779.97;;;23.95;40.63
55757;BME280;41676;44.610;44.078;2023-05-21T12:23:28;99834.25;;;24.10;41.24
55757;BME280;41676;44.610;44.078;2023-05-21T12:28:31;99877.94;;;24.09;41.79
55757;BME280;41676;44.610;44.078;2023-05-21T12:33:35;99882.50;;;23.88;42.26
55757;BME280;41676;44.610;44.078;2023-05-21T12:38:36;99882.19;;;23.74;41.92
55757;BME280;41676;44.610;44.078;2023-05-21T12:43:37;99863.94;;;23.59;42.34
55757;BME280;41676;44.610;44.078;2023-05-21T12:48:37;99868.81;;;23.57;43.12
55757;BME280;41676;44.610;44.078;2023-05-21T12:53:41;99865.84;;;23.59;42.26
55757;BME280;41676;44.610;44.078;2023-05-21T12:58:48;99850.34;;;23.54;41.60
55757;BME280;41676;44.610;44.078;2023-05-21T13:03:49;99851.44;;;23.53;42.38
55757;BME280;41676;44.610;44.078;2023-05-21T13:08:50;99837.84;;;23.48;42.57
55757;BME280;41676;44.610;44.078;2023-05-21T13:13:51;99830.84;;;23.52;42.20
55757;BME280;41676;44.610;44.078;2023-05-21T13:18:52;99760.72;;;22.98;42.24
55757;BME280;41676;44.610;44.078;2023-05-21T13:23:52;99825.63;;;23.35;43.08
55757;BME280;41676;44.610;44.078;2023-05-21T13:28:53;99756.00;;;22.83;43.78
55757;BME280;41676;44.610;44.078;2023-05-21T13:33:54;99788.13;;;23.12;43.78
55757;BME280;41676;44.610;44.078;2023-05-21T13:38:55;99823.16;;;23.29;43.60
55757;BME280;41676;44.610;44.078;2023-05-21T13:43:56;99807.66;;;23.14;43.48
55757;BME280;41676;44.610;44.078;2023-05-21T13:48:57;99758.41;;;22.74;44.10
55757;BME280;41676;44.610;44.078;2023-05-21T13:53:57;99822.81;;;23.10;44.52
55757;BME280;41676;44.610;44.078;2023-05-21T13:58:58;99818.19;;;23.10;44.49
55757;BME280;41676;44.610;44.078;2023-05-21T14:03:59;99740.75;;;22.62;44.36
55757;BME280;41676;44.610;44.078;2023-05-21T14:09:03;99746.44;;;22.65;43.73
55757;BME280;41676;44.610;44.078;2023-05-21T14:14:04;99805.19;;;23.07;41.64
55757;BME280;41676;44.610;44.078;2023-05-21T14:19:05;99820.59;;;23.01;41.31
55757;BME280;41676;44.610;44.078;2023-05-21T14:24:06;99789.84;;;22.81;41.15
55757;BME280;41676;44.610;44.078;2023-05-21T14:29:07;99816.41;;;22.84;40.90
55757;BME280;41676;44.610;44.078;2023-05-21T14:34:08;99810.41;;;22.82;41.20
55757;BME280;41676;44.610;44.078;2023-05-21T14:39:09;99825.47;;;22.67;43.13
55757;BME280;41676;44.610;44.078;2023-05-21T14:44:10;99823.81;;;22.56;44.72
55757;BME280;41676;44.610;44.078;2023-05-21T14:49:11;99831.94;;;22.56;45.44
55757;BME280;41676;44.610;44.078;2023-05-21T14:54:12;99820.41;;;22.39;46.31
55757;BME280;41676;44.610;44.078;2023-05-21T14:59:13;99829.56;;;22.32;46.53
55757;BME280;41676;44.610;44.078;2023-05-21T15:04:14;99826.31;;;22.30;46.78
55757;BME280;41676;44.610;44.078;2023-05-21T15:09:15;99833.25;;;22.21;47.25
55757;BME280;41676;44.610;44.078;2023-05-21T15:14:16;99856.84;;;22.26;47.74
55757;BME280;41676;44.610;44.078;2023-05-21T15:19:17;99866.28;;;22.23;47.86
55757;BME280;41676;44.610;44.078;2023-05-21T15:24:17;99794.06;;;21.70;48.34
55757;BME280;41676;44.610;44.078;2023-05-21T15:29:18;99862.75;;;21.96;48.60
55757;BME280;41676;44.610;44.078;2023-05-21T15:34:19;99854.00;;;21.88;49.04
55757;BME280;41676;44.610;44.078;2023-05-21T15:39:20;99854.44;;;21.80;49.20
55757;BME280;41676;44.610;44.078;2023-05-21T15:44:21;99804.28;;;21.40;49.28
55757;BME280;41676;44.610;44.078;2023-05-21T15:49:22;99877.16;;;21.79;49.49
55757;BME280;41676;44.610;44.078;2023-05-21T15:54:23;99829.72;;;21.45;50.10
55757;BME280;41676;44.610;44.078;2023-05-21T15:59:24;99819.28;;;21.31;50.13
55757;BME280;41676;44.610;44.078;2023-05-21T16:04:26;99876.47;;;21.67;51.12
55757;BME280;41676;44.610;44.078;2023-05-21T16:09:27;99850.88;;;21.31;52.86
55757;BME280;41676;44.610;44.078;2023-05-21T16:14:28;99889.03;;;21.34;54.25
55757;BME280;41676;44.610;44.078;2023-05-21T16:19:28;99907.34;;;21.32;55.30
55757;BME280;41676;44.610;44.078;2023-05-21T16:24:29;99856.28;;;20.92;55.59
55757;BME280;41676;44.610;44.078;2023-05-21T16:29:30;99886.13;;;21.02;56.06
55757;BME280;41676;44.610;44.078;2023-05-21T16:34:31;99900.31;;;21.09;56.30
55757;BME280;41676;44.610;44.078;2023-05-21T16:39:33;99901.53;;;21.02;56.57
55757;BME280;41676;44.610;44.078;2023-05-21T16:44:34;99909.03;;;21.00;56.75
55757;BME280;41676;44.610;44.078;2023-05-21T16:49:37;99899.81;;;20.95;56.96
55757;BME280;41676;44.610;44.078;2023-05-21T16:54:37;99831.97;;;20.53;56.93
55757;BME280;41676;44.610;44.078;2023-05-21T16:59:38;99861.63;;;20.70;56.77
55757;BME280;41676;44.610;44.078;2023-05-21T17:04:39;99876.69;;;20.83;56.75
55757;BME280;41676;44.610;44.078;2023-05-21T17:09:40;99888.59;;;20.87;56.47
55757;BME280;41676;44.610;44.078;2023-05-21T17:14:40;99874.31;;;20.86;56.51
55757;BME280;41676;44.610;44.078;2023-05-21T17:19:41;99879.78;;;20.91;56.49
55757;BME280;41676;44.610;44.078;2023-05-21T17:24:42;99842.50;;;20.71;56.52
55757;BME280;41676;44.610;44.078;2023-05-21T17:29:43;99864.56;;;20.85;56.38
55757;BME280;41676;44.610;44.078;2023-05-21T17:34:44;99849.19;;;20.69;56.47
55757;BME280;41676;44.610;44.078;2023-05-21T17:39:45;99810.00;;;20.33;56.42
55757;BME280;41676;44.610;44.078;2023-05-21T17:44:45;99854.81;;;20.50;56.34
55757;BME280;41676;44.610;44.078;2023-05-21T17:49:46;99897.28;;;20.72;56.38
55757;BME280;41676;44.610;44.078;2023-05-21T17:54:47;99897.69;;;20.64;56.60
55757;BME280;41676;44.610;44.078;2023-05-21T17:59:48;99897.03;;;20.57;56.80
55757;BME280;41676;44.610;44.078;2023-05-21T18:04:49;99882.19;;;20.42;57.54
55757;BME280;41676;44.610;44.078;2023-05-21T18:09:49;99904.94;;;20.46;57.32
55757;BME280;41676;44.610;44.078;2023-05-21T18:14:50;99870.56;;;20.25;57.69
55757;BME280;41676;44.610;44.078;2023-05-21T18:19:51;99897.72;;;20.35;58.22
55757;BME280;41676;44.610;44.078;2023-05-21T18:24:51;99883.97;;;20.20;58.74
55757;BME280;41676;44.610;44.078;2023-05-21T18:29:52;99888.88;;;20.23;59.32
55757;BME280;41676;44.610;44.078;2023-05-21T18:34:53;99876.84;;;20.14;60.34
55757;BME280;41676;44.610;44.078;2023-05-21T18:39:54;99808.38;;;19.69;60.69
55757;BME280;41676;44.610;44.078;2023-05-21T18:44:54;99866.13;;;20.02;60.75
55757;BME280;41676;44.610;44.078;2023-05-21T18:49:55;99874.53;;;20.05;61.37
55757;BME280;41676;44.610;44.078;2023-05-21T18:54:56;99870.81;;;19.95;62.61
55757;BME280;41676;44.610;44.078;2023-05-21T18:59:57;99866.66;;;19.87;63.36
55757;BME280;41676;44.610;44.078;2023-05-21T19:04:57;99843.41;;;19.69;64.11
55757;BME280;41676;44.610;44.078;2023-05-21T19:09:59;99862.72;;;19.78;64.71
55757;BME280;41676;44.610;44.078;2023-05-21T19:15:01;99855.81;;;19.70;65.47
55757;BME280;41676;44.610;44.078;2023-05-21T19:20:02;99777.81;;;19.23;65.58
55757;BME280;41676;44.610;44.078;2023-05-21T19:25:04;99847.84;;;19.64;66.77
55757;BME280;41676;44.610;44.078;2023-05-21T19:30:06;99837.00;;;19.47;67.60
55757;BME280;41676;44.610;44.078;2023-05-21T19:35:07;99693.91;;;18.62;67.57
55757;BME280;41676;44.610;44.078;2023-05-21T19:40:08;99832.41;;;19.47;68.91
55757;BME280;41676;44.610;44.078;2023-05-21T19:45:10;99773.41;;;19.05;68.87
55757;BME280;41676;44.610;44.078;2023-05-21T19:50:11;99826.72;;;19.32;69.48
55757;BME280;41676;44.610;44.078;2023-05-21T19:55:12;99835.63;;;19.32;69.89
55757;BME280;41676;44.610;44.078;2023-05-21T20:00:13;99818.22;;;19.11;69.88
55757;BME280;41676;44.610;44.078;2023-05-21T20:05:14;99789.69;;;18.87;70.07
55757;BME280;41676;44.610;44.078;2023-05-21T20:10:15;99842.69;;;19.10;71.73
55757;BME280;41676;44.610;44.078;2023-05-21T20:15:16;99823.66;;;18.88;73.57
55757;BME280;41676;44.610;44.078;2023-05-21T20:20:17;99840.75;;;18.82;75.63
55757;BME280;41676;44.610;44.078;2023-05-21T20:25:22;99769.00;;;18.29;76.62
55757;BME280;41676;44.610;44.078;2023-05-21T20:30:26;99840.94;;;18.68;77.00
55757;BME280;41676;44.610;44.078;2023-05-21T20:35:27;99842.91;;;18.61;77.65
55757;BME280;41676;44.610;44.078;2023-05-21T20:40:28;99836.13;;;18.47;77.75
55757;BME280;41676;44.610;44.078;2023-05-21T20:45:28;99833.91;;;18.44;77.67
55757;BME280;41676;44.610;44.078;2023-05-21T20:50:30;99810.13;;;18.29;77.68
55757;BME280;41676;44.610;44.078;2023-05-21T20:55:31;99824.84;;;18.27;77.99
55757;BME280;41676;44.610;44.078;2023-05-21T21:00:34;99826.38;;;18.22;78.01
55757;BME280;41676;44.610;44.078;2023-05-21T21:05:35;99830.44;;;18.13;78.06
55757;BME280;41676;44.610;44.078;2023-05-21T21:10:36;99822.72;;;18.05;78.04
55757;BME280;41676;44.610;44.078;2023-05-21T21:15:37;99810.69;;;18.08;77.76
55757;BME280;41676;44.610;44.078;2023-05-21T21:20:38;99721.34;;;17.52;77.36
55757;BME280;41676;44.610;44.078;2023-05-21T21:25:40;99727.59;;;17.64;77.13
55757;BME280;41676;44.610;44.078;2023-05-21T21:30:41;99793.28;;;18.10;76.96
55757;BME280;41676;44.610;44.078;2023-05-21T21:35:42;99800.59;;;18.03;76.98
55757;BME280;41676;44.610;44.078;2023-05-21T21:40:42;99781.91;;;17.96;77.08
55757;BME280;41676;44.610;44.078;2023-05-21T21:45:43;99772.75;;;17.86;76.78
55757;BME280;41676;44.610;44.078;2023-05-21T21:50:44;99643.44;;;16.98;76.97
55757;BME280;41676;44.610;44.078;2023-05-21T21:55:45;99729.88;;;17.49;77.13
55757;BME280;41676;44.610;44.078;2023-05-21T22:00:46;99782.97;;;17.65;77.34
55757;BME280;41676;44.610;44.078;2023-05-21T22:05:47;99772.13;;;17.42;77.50
55757;BME280;41676;44.610;44.078;2023-05-21T22:10:50;99745.88;;;17.25;77.48
55757;BME280;41676;44.610;44.078;2023-05-21T22:15:50;99746.78;;;17.19;77.39
55757;BME280;41676;44.610;44.078;2023-05-21T22:20:51;99744.41;;;17.11;77.45
55757;BME280;41676;44.610;44.078;2023-05-21T22:25:52;99660.53;;;16.67;77.17
55757;BME280;41676;44.610;44.078;2023-05-21T22:30:53;99685.72;;;16.84;76.98
55757;BME280;41676;44.610;44.078;2023-05-21T22:35:54;99751.59;;;17.29;76.95
55757;BME280;41676;44.610;44.078;2023-05-21T22:40:55;99756.66;;;17.37;77.14
55757;BME280;41676;44.610;44.078;2023-05-21T22:45:55;99764.50;;;17.39;77.49
55757;BME280;41676;44.610;44.078;2023-05-21T22:50:56;99745.06;;;17.25;77.46
55757;BME280;41676;44.610;44.078;2023-05-21T22:55:58;99595.75;;;16.33;77.92
55757;BME280;41676;44.610;44.078;2023-05-21T23:00:59;99746.88;;;17.13;77.94
55757;BME280;41676;44.610;44.078;2023-05-21T23:05:59;99746.88;;;17.13;78.07
55757;BME280;41676;44.610;44.078;2023-05-21T23:11:00;99669.47;;;16.61;77.94
55757;BME280;41676;44.610;44.078;2023-05-21T23:16:01;99733.84;;;16.98;77.88
55757;BME280;41676;44.610;44.078;2023-05-21T23:21:03;99663.94;;;16.56;77.25
55757;BME280;41676;44.610;44.078;2023-05-21T23:26:04;99724.28;;;17.02;77.71
55757;BME280;41676;44.610;44.078;2023-05-21T23:31:04;99740.53;;;17.07;77.30
55757;BME280;41676;44.610;44.078;2023-05-21T23:36:06;99739.81;;;17.00;77.28
55757;BME280;41676;44.610;44.078;2023-05-21T23:41:07;99641.22;;;16.40;77.40
55757;BME280;41676;44.610;44.078;2023-05-21T23:46:09;99694.13;;;16.70;77.71
55757;BME280;41676;44.610;44.078;2023-05-21T23:51:10;99751.06;;;17.08;77.55
55757;BME280;41676;44.610;44.078;2023-05-21T23:56:11;99709.72;;;16.79;77.75
